Aeroporto :
LOGIN :

Iscrizione | Disclaimer

   EN    FR    IT 

 










Sommario :    VFR   VFR Marginale   IFR   IFR Intensivo   IFR Molto Intensivo
Visibilità : 
Base nubi : 
>= 8 km
>= 3000ft
5 / 8 km
1000 / 3000 ft
1500m / 5 km
500 / 1000 ft
800 / 1500m
200 / 500 ft
< 800m
< 200 ft
Simboli :   Temporali  Nebbia  Neve Forte  Precipitazioni Forti  Vento > 20 kt
SIGMETs :   Varie  Temporali  Ghiacco  Turbolenza  Onda orograficha  Ceneri Vulcaniche






- Altitudine del aeroporto : 83 ft
- Codice IATA : LHR


EGLL - London Heathrow

ULTIMO METAR :
  • 180420Z AUTO 24012KT 9999 NCD 05/01 Q1019 NOSIG

METARs OBSOLETI :
  • 180350Z AUTO 24012KT 9999 NCD 05/01 Q1019 NOSIG
  • 180320Z AUTO 24009KT 9999 NCD 05/01 Q1019 NOSIG
  • 180250Z AUTO 24011KT 9999 NCD 05/01 Q1019 NOSIG
  • 180220Z AUTO 24013KT 9999 NCD 05/01 Q1019 NOSIG
  • 180150Z AUTO 24010KT 9999 NCD 05/01 Q1019 NOSIG

TAF TAF EGLL
Valido dal 18 a 00 ore il 19 a 06 ore UTC


172252Z 1800/1906 23013KT 9999 SCT030
BECMG 1809/1812 23016G26KT
TEMPO 1810/1821 6000 SHRA
PROB30
TEMPO 1817/1821 25018G36KT 3000 +SHRA SHGS BKN014CB
BECMG 1818/1821 27012KT



MetMap, La meteo Aeronautica in un colpo d'occhio ! - Copyright ORBIFLY Dicembre 2007 - Disclaimer

ORBIFLY MET'MAP TEAM :

Programmazione e sviluppo : Alexandra Zaïnal
Concezione : Baudouin d'Aumeries
Aiuto per la programmazione : Marc-Olivier Méhu
Supporto tecnico e logistico : Manuel Goepfert
Aiuto per la traduzione : Arnaldo La Scala

Contatto : metmap@orbifly.com




FONTI E CREDITI :

   NOAA